createdAt,value
2023-07-03T00:01:33.366Z,21.41
2023-07-03T00:04:01.581Z,21.39
2023-07-03T00:06:30.439Z,21.31
2023-07-03T00:08:58.480Z,21.30
2023-07-03T00:11:26.493Z,21.32
2023-07-03T00:13:56.055Z,21.25
2023-07-03T00:16:24.187Z,21.30
2023-07-03T00:18:52.197Z,21.26
2023-07-03T00:21:20.169Z,21.27
2023-07-03T00:23:48.296Z,21.29
2023-07-03T00:26:16.302Z,21.22
2023-07-03T00:28:44.495Z,21.20
2023-07-03T00:31:14.042Z,21.22
2023-07-03T00:33:42.160Z,21.18
2023-07-03T00:36:11.225Z,21.26
2023-07-03T00:38:39.312Z,21.26
2023-07-03T00:41:07.338Z,21.24
2023-07-03T00:43:35.706Z,21.16
2023-07-03T00:46:04.552Z,21.19
2023-07-03T00:48:34.570Z,21.18
2023-07-03T00:51:03.064Z,21.17
2023-07-03T00:53:31.152Z,21.11
2023-07-03T00:55:59.401Z,21.13
2023-07-03T00:58:28.648Z,21.10
2023-07-03T01:01:01.720Z,21.11
2023-07-03T01:03:37.231Z,21.05
2023-07-03T01:06:08.738Z,21.01
2023-07-03T01:08:36.965Z,21.03
2023-07-03T01:11:05.493Z,20.98
2023-07-03T01:13:37.173Z,20.96
2023-07-03T01:16:08.593Z,20.91
2023-07-03T01:18:38.868Z,20.87
2023-07-03T01:21:11.774Z,20.85
2023-07-03T01:23:48.046Z,20.80
2023-07-03T01:26:18.553Z,20.77
2023-07-03T01:28:48.122Z,20.71
2023-07-03T01:31:19.031Z,20.71
2023-07-03T01:33:47.625Z,20.67
2023-07-03T01:36:17.751Z,20.68
2023-07-03T01:38:47.704Z,20.63
2023-07-03T01:41:20.559Z,20.52
2023-07-03T01:43:49.415Z,20.52
2023-07-03T01:46:17.820Z,20.47
2023-07-03T01:48:45.923Z,20.48
2023-07-03T01:51:21.469Z,20.40
2023-07-03T01:53:56.524Z,20.39
2023-07-03T01:56:31.517Z,20.38
2023-07-03T01:59:05.576Z,20.39
2023-07-03T02:01:43.401Z,20.36
2023-07-03T02:04:20.377Z,20.40
2023-07-03T02:06:49.798Z,20.40
2023-07-03T02:09:18.566Z,20.37
2023-07-03T02:11:49.513Z,20.39
2023-07-03T02:14:17.741Z,20.39
2023-07-03T02:16:48.411Z,20.39
2023-07-03T02:19:17.447Z,20.41
2023-07-03T02:21:46.765Z,20.38
2023-07-03T02:24:15.211Z,20.34
2023-07-03T02:26:44.963Z,20.36
2023-07-03T02:29:14.663Z,20.36
2023-07-03T02:31:42.625Z,20.35
2023-07-03T02:34:10.676Z,20.29
2023-07-03T02:36:39.817Z,20.35
2023-07-03T02:39:08.771Z,20.33
2023-07-03T02:41:36.789Z,20.34
2023-07-03T02:44:05.118Z,20.29
2023-07-03T02:46:34.514Z,20.32
2023-07-03T02:49:02.571Z,20.35
2023-07-03T02:51:30.604Z,20.34
2023-07-03T02:53:58.566Z,20.34
2023-07-03T02:56:27.011Z,20.33
2023-07-03T02:58:55.020Z,20.30
2023-07-03T03:01:23.131Z,20.34
2023-07-03T03:03:52.913Z,20.34
2023-07-03T03:06:21.136Z,20.36
2023-07-03T03:08:50.061Z,20.36
2023-07-03T03:11:18.027Z,20.39
2023-07-03T03:13:45.975Z,20.38
2023-07-03T03:16:13.956Z,20.39
2023-07-03T03:18:41.923Z,20.39
2023-07-03T03:21:11.594Z,20.40
2023-07-03T03:23:39.591Z,20.41
2023-07-03T03:26:08.254Z,20.41
2023-07-03T03:28:36.420Z,20.41
2023-07-03T03:31:04.983Z,20.45
2023-07-03T03:33:33.154Z,20.48
2023-07-03T03:36:01.170Z,20.46
2023-07-03T03:38:30.828Z,20.57
2023-07-03T03:41:00.843Z,20.63
2023-07-03T03:43:28.850Z,20.71
2023-07-03T03:45:57.869Z,20.81
2023-07-03T03:48:26.770Z,20.90
2023-07-03T03:50:54.851Z,21.01
2023-07-03T03:53:22.864Z,21.11
2023-07-03T03:55:53.011Z,21.23
2023-07-03T03:58:22.469Z,21.31
2023-07-03T04:00:52.130Z,21.43
2023-07-03T04:03:20.154Z,21.58
2023-07-03T04:05:49.411Z,21.69
2023-07-03T04:08:17.824Z,21.81
2023-07-03T04:10:46.009Z,21.94
2023-07-03T04:13:15.739Z,22.07
2023-07-03T04:15:58.807Z,22.27
2023-07-03T04:18:27.912Z,22.42
2023-07-03T04:20:56.120Z,22.61
2023-07-03T04:23:24.763Z,22.77
2023-07-03T04:25:53.106Z,22.94
2023-07-03T04:28:24.910Z,23.14
2023-07-03T04:30:53.041Z,23.30
2023-07-03T04:33:21.396Z,23.43
2023-07-03T04:35:50.427Z,23.46
2023-07-03T04:38:19.948Z,23.83
2023-07-03T04:40:48.472Z,23.96
2023-07-03T04:43:17.308Z,24.01
2023-07-03T04:45:49.822Z,24.17
2023-07-03T04:48:18.638Z,24.35
2023-07-03T04:50:49.141Z,24.55
2023-07-03T04:53:17.560Z,24.70
2023-07-03T04:55:45.686Z,24.86
2023-07-03T04:58:13.819Z,24.92
2023-07-03T05:00:42.092Z,25.10
2023-07-03T05:03:11.742Z,25.22
2023-07-03T05:05:39.985Z,25.15
2023-07-03T05:08:08.001Z,25.31
2023-07-03T05:10:36.573Z,25.50
2023-07-03T05:13:04.917Z,25.60
2023-07-03T05:15:33.068Z,25.74
2023-07-03T05:18:01.335Z,26.06
2023-07-03T05:20:31.157Z,26.07
2023-07-03T05:22:59.831Z,26.06
2023-07-03T05:25:28.051Z,26.30
2023-07-03T05:27:56.509Z,26.42
2023-07-03T05:30:24.952Z,26.53
2023-07-03T05:32:53.090Z,26.79
2023-07-03T05:35:21.270Z,26.83
2023-07-03T05:37:50.752Z,26.86
2023-07-03T05:40:19.047Z,27.04
2023-07-03T05:42:47.134Z,27.23
2023-07-03T05:45:15.612Z,27.38
2023-07-03T05:47:43.637Z,27.42
2023-07-03T05:50:12.220Z,27.39
2023-07-03T05:52:41.900Z,27.48
2023-07-03T05:55:11.754Z,27.63
2023-07-03T05:57:40.381Z,27.83
2023-07-03T06:00:14.819Z,27.95
2023-07-03T06:02:44.123Z,28.11
2023-07-03T06:05:14.440Z,28.25
2023-07-03T06:07:42.931Z,28.33
2023-07-03T06:10:13.829Z,28.44
2023-07-03T06:12:42.306Z,28.66
2023-07-03T06:15:11.404Z,28.75
2023-07-03T06:17:40.130Z,28.79
2023-07-03T06:20:12.052Z,28.51
2023-07-03T06:22:40.711Z,28.59
2023-07-03T06:25:09.484Z,28.77
2023-07-03T06:27:39.234Z,28.72
2023-07-03T06:30:08.722Z,28.91
2023-07-03T06:32:37.032Z,28.97
2023-07-03T06:35:07.125Z,28.88
2023-07-03T06:37:37.155Z,29.04
2023-07-03T06:40:07.921Z,29.00
2023-07-03T06:42:36.408Z,29.12
2023-07-03T06:45:07.205Z,29.32
2023-07-03T06:47:35.826Z,29.26
2023-07-03T06:50:04.097Z,29.40
2023-07-03T06:52:32.395Z,29.22
2023-07-03T06:55:00.928Z,29.17
2023-07-03T06:57:29.592Z,29.30
2023-07-03T06:59:57.801Z,29.14
2023-07-03T07:02:27.954Z,29.27
2023-07-03T07:04:58.277Z,29.30
2023-07-03T07:07:28.011Z,29.40
2023-07-03T07:09:56.602Z,29.74
2023-07-03T07:12:25.005Z,29.96
2023-07-03T07:14:53.168Z,29.92
2023-07-03T07:17:23.774Z,30.06
2023-07-03T07:19:58.864Z,30.09
2023-07-03T07:22:27.165Z,30.28
2023-07-03T07:24:55.335Z,30.44
2023-07-03T07:27:23.698Z,29.92
2023-07-03T07:29:52.031Z,30.32
2023-07-03T07:32:21.083Z,30.55
2023-07-03T07:34:49.421Z,30.71
2023-07-03T07:37:19.447Z,30.71
2023-07-03T07:39:47.772Z,29.47
2023-07-03T07:42:15.817Z,29.83
2023-07-03T07:44:43.775Z,29.84
2023-07-03T07:47:12.470Z,30.10
2023-07-03T07:49:43.230Z,30.31
2023-07-03T07:52:11.475Z,30.45
2023-07-03T07:54:41.122Z,30.81
2023-07-03T07:57:09.492Z,31.02
2023-07-03T07:59:38.902Z,31.20
2023-07-03T08:02:08.678Z,31.08
2023-07-03T08:04:37.917Z,31.35
2023-07-03T08:07:06.705Z,31.47
2023-07-03T08:09:34.992Z,31.65
2023-07-03T08:12:05.845Z,31.77
2023-07-03T08:14:34.304Z,31.91
2023-07-03T08:17:03.560Z,31.87
2023-07-03T08:19:32.428Z,31.67
2023-07-03T08:22:00.560Z,31.05
2023-07-03T08:24:28.767Z,31.41
2023-07-03T08:26:56.869Z,31.64
2023-07-03T08:29:26.654Z,31.69
2023-07-03T08:31:55.149Z,31.26
2023-07-03T08:34:23.593Z,31.60
2023-07-03T08:39:23.290Z,31.93
2023-07-03T08:42:01.521Z,32.29
2023-07-03T08:44:31.215Z,32.35
2023-07-03T08:47:10.471Z,32.40
2023-07-03T08:49:42.161Z,32.58
2023-07-03T08:52:10.758Z,32.09
2023-07-03T08:54:42.759Z,30.32
2023-07-03T08:57:13.238Z,31.13
2023-07-03T08:59:43.207Z,31.72
2023-07-03T09:02:17.530Z,31.55
2023-07-03T09:04:59.955Z,31.87
2023-07-03T09:07:33.661Z,32.21
2023-07-03T09:10:08.961Z,32.05
2023-07-03T09:12:41.866Z,30.98
2023-07-03T09:15:14.363Z,31.58
2023-07-03T09:17:45.049Z,31.74
2023-07-03T09:20:16.029Z,31.53
2023-07-03T09:22:48.904Z,31.42
2023-07-03T09:27:54.086Z,31.99
2023-07-03T09:30:24.709Z,32.07
2023-07-03T09:32:52.934Z,31.93
2023-07-03T09:35:22.874Z,31.99
2023-07-03T09:37:53.163Z,32.36
2023-07-03T09:40:25.201Z,32.67
2023-07-03T09:42:54.082Z,32.51
2023-07-03T09:45:26.161Z,32.65
2023-07-03T09:47:59.848Z,32.91
2023-07-03T09:50:31.024Z,33.11
2023-07-03T09:53:08.296Z,33.12
2023-07-03T09:55:38.457Z,32.86
2023-07-03T09:58:14.269Z,32.02
2023-07-03T10:00:50.583Z,32.57
2023-07-03T10:03:30.833Z,32.86
2023-07-03T10:08:43.966Z,33.29
2023-07-03T10:11:13.510Z,32.29
2023-07-03T10:13:48.335Z,32.52
2023-07-03T10:16:18.819Z,32.33
2023-07-03T10:18:50.588Z,32.62
2023-07-03T10:21:22.591Z,32.85
2023-07-03T10:23:52.295Z,32.59
2023-07-03T10:26:25.613Z,32.72
2023-07-03T10:29:00.260Z,32.56
2023-07-03T10:31:35.183Z,32.77
2023-07-03T10:34:08.110Z,32.55
2023-07-03T10:36:38.268Z,32.05
2023-07-03T10:39:11.089Z,32.17
2023-07-03T10:41:45.535Z,32.23
2023-07-03T10:44:19.142Z,32.28
2023-07-03T10:46:55.525Z,31.77
2023-07-03T10:49:28.418Z,31.40
2023-07-03T10:52:01.902Z,31.44
2023-07-03T10:54:35.160Z,31.91
2023-07-03T10:57:08.705Z,32.19
2023-07-03T10:59:44.705Z,32.52
2023-07-03T11:02:24.534Z,32.57
2023-07-03T11:05:04.146Z,32.54
2023-07-03T11:07:39.936Z,32.59
2023-07-03T11:10:19.228Z,32.81
2023-07-03T11:12:53.920Z,33.05
2023-07-03T11:15:33.117Z,33.07
2023-07-03T11:23:38.005Z,33.33
2023-07-03T11:28:52.480Z,33.64
2023-07-03T11:31:21.663Z,32.62
2023-07-03T11:36:51.577Z,32.80
2023-07-03T11:44:48.508Z,33.00
2023-07-03T11:47:21.273Z,33.19
2023-07-03T11:49:55.910Z,32.97
2023-07-03T11:52:28.437Z,33.21
2023-07-03T11:55:02.040Z,33.20
2023-07-03T11:57:34.461Z,33.17
2023-07-03T12:00:18.592Z,32.95
2023-07-03T12:02:59.862Z,32.89
2023-07-03T12:06:07.721Z,32.92
2023-07-03T12:08:53.430Z,32.90
2023-07-03T12:11:28.345Z,32.83
2023-07-03T12:13:57.132Z,33.00
2023-07-03T12:16:32.608Z,32.99
2023-07-03T12:19:05.516Z,32.96
2023-07-03T12:21:44.227Z,32.91
2023-07-03T12:24:26.606Z,32.91
2023-07-03T12:26:58.981Z,32.96
2023-07-03T12:29:27.449Z,32.97
2023-07-03T12:31:58.027Z,33.14
2023-07-03T12:34:28.508Z,32.99
2023-07-03T12:37:07.659Z,32.89
2023-07-03T12:39:39.192Z,32.92
2023-07-03T12:42:09.947Z,32.97
2023-07-03T12:44:39.421Z,33.05
2023-07-03T12:47:14.147Z,32.95
2023-07-03T12:49:56.973Z,32.88
2023-07-03T12:52:29.300Z,32.59
2023-07-03T12:55:13.867Z,32.62
2023-07-03T12:57:46.266Z,32.15
2023-07-03T13:00:25.808Z,32.27
2023-07-03T13:02:59.181Z,32.50
2023-07-03T13:05:28.413Z,32.47
2023-07-03T13:07:56.643Z,32.63
2023-07-03T13:10:26.885Z,32.57
2023-07-03T13:13:07.010Z,32.63
2023-07-03T13:15:37.518Z,32.47
2023-07-03T13:18:08.295Z,32.47
2023-07-03T13:20:37.774Z,32.44
2023-07-03T13:23:08.458Z,32.38
2023-07-03T13:25:48.557Z,32.20
2023-07-03T13:28:22.904Z,32.05
2023-07-03T13:31:13.524Z,32.16
2023-07-03T13:33:43.431Z,32.18
2023-07-03T13:36:24.465Z,32.24
2023-07-03T13:39:04.500Z,32.16
2023-07-03T13:41:35.268Z,32.17
2023-07-03T13:44:07.082Z,32.12
2023-07-03T13:46:36.804Z,32.07
2023-07-03T13:49:06.531Z,31.97
2023-07-03T13:51:36.211Z,31.86
2023-07-03T13:54:11.824Z,31.94
2023-07-03T13:56:43.286Z,31.93
2023-07-03T13:59:12.899Z,32.01
2023-07-03T14:01:43.512Z,32.04
2023-07-03T14:04:13.223Z,32.13
2023-07-03T14:06:41.672Z,32.06
2023-07-03T14:09:11.305Z,32.16
2023-07-03T14:11:39.778Z,32.04
2023-07-03T14:14:10.923Z,32.04
2023-07-03T14:16:39.093Z,32.01
2023-07-03T14:19:07.838Z,32.00
2023-07-03T14:21:36.547Z,31.75
2023-07-03T14:24:04.988Z,31.86
2023-07-03T14:26:33.488Z,31.81
2023-07-03T14:29:01.808Z,31.92
2023-07-03T14:31:32.382Z,31.88
2023-07-03T14:34:01.133Z,31.80
2023-07-03T14:36:29.949Z,31.98
2023-07-03T14:38:58.244Z,31.98
2023-07-03T14:41:26.526Z,31.93
2023-07-03T14:43:56.090Z,32.12
2023-07-03T14:46:24.224Z,32.09
2023-07-03T14:48:55.591Z,32.14
2023-07-03T14:51:23.862Z,32.17
2023-07-03T14:53:51.989Z,32.07
2023-07-03T14:56:20.260Z,32.08
2023-07-03T14:58:48.347Z,32.21
2023-07-03T15:01:16.597Z,32.25
2023-07-03T15:03:45.458Z,32.13
2023-07-03T15:06:15.888Z,32.16
2023-07-03T15:08:44.053Z,32.10
2023-07-03T15:11:15.848Z,32.03
2023-07-03T15:13:44.557Z,32.03
2023-07-03T15:16:13.119Z,32.03
2023-07-03T15:18:41.300Z,32.05
2023-07-03T15:21:09.806Z,32.11
2023-07-03T15:23:39.747Z,32.04
2023-07-03T15:26:09.416Z,32.02
2023-07-03T15:28:37.970Z,31.69
2023-07-03T15:31:06.747Z,31.78
2023-07-03T15:33:36.247Z,31.64
2023-07-03T15:36:04.531Z,31.47
2023-07-03T15:38:33.054Z,31.28
2023-07-03T15:41:03.239Z,31.36
2023-07-03T15:43:32.562Z,31.22
2023-07-03T15:46:06.155Z,31.18
2023-07-03T15:48:35.203Z,30.73
2023-07-03T15:51:04.130Z,30.86
2023-07-03T15:53:32.854Z,30.78
2023-07-03T15:56:04.274Z,30.49
2023-07-03T15:58:34.390Z,30.68
2023-07-03T16:01:07.184Z,30.64
2023-07-03T16:03:37.628Z,30.69
2023-07-03T16:06:08.414Z,30.69
2023-07-03T16:08:38.375Z,30.65
2023-07-03T16:11:09.157Z,30.60
2023-07-03T16:13:38.812Z,30.57
2023-07-03T16:16:08.575Z,30.63
2023-07-03T16:18:37.526Z,30.50
2023-07-03T16:21:08.083Z,30.53
2023-07-03T16:23:36.536Z,30.50
2023-07-03T16:26:06.785Z,30.39
2023-07-03T16:28:39.425Z,30.27
2023-07-03T16:31:09.699Z,30.40
2023-07-03T16:33:41.420Z,30.27
2023-07-03T16:36:14.205Z,30.12
2023-07-03T16:38:47.161Z,30.00
2023-07-03T16:41:16.612Z,29.98
2023-07-03T16:43:47.705Z,29.89
2023-07-03T16:46:19.095Z,29.78
2023-07-03T16:48:48.504Z,29.62
2023-07-03T16:51:18.381Z,29.37
2023-07-03T16:53:46.897Z,29.11
2023-07-03T16:56:17.113Z,29.11
2023-07-03T16:58:48.162Z,29.11
2023-07-03T17:01:18.846Z,29.14
2023-07-03T17:03:47.752Z,29.06
2023-07-03T17:06:21.050Z,29.04
2023-07-03T17:08:50.552Z,29.05
2023-07-03T17:11:19.584Z,29.10
2023-07-03T17:13:50.778Z,29.10
2023-07-03T17:16:20.013Z,29.05
2023-07-03T17:18:49.015Z,29.09
2023-07-03T17:21:17.634Z,29.05
2023-07-03T17:23:47.424Z,28.69
2023-07-03T17:26:15.857Z,28.77
2023-07-03T17:28:44.363Z,28.60
2023-07-03T17:31:13.982Z,28.65
2023-07-03T17:33:42.295Z,28.75
2023-07-03T17:36:10.731Z,28.77
2023-07-03T17:38:39.168Z,28.76
2023-07-03T17:41:08.648Z,28.75
2023-07-03T17:43:38.008Z,28.78
2023-07-03T17:46:06.217Z,28.78
2023-07-03T17:48:36.308Z,28.71
2023-07-03T17:51:06.811Z,28.72
2023-07-03T17:53:34.940Z,28.77
2023-07-03T17:56:03.200Z,28.77
2023-07-03T17:58:31.583Z,28.71
2023-07-03T18:01:02.632Z,28.75
2023-07-03T18:03:32.390Z,28.72
2023-07-03T18:06:03.183Z,28.64
2023-07-03T18:08:31.819Z,28.52
2023-07-03T18:10:59.989Z,28.45
2023-07-03T18:13:29.101Z,28.47
2023-07-03T18:15:57.743Z,28.48
2023-07-03T18:18:26.077Z,28.41
2023-07-03T18:20:54.164Z,28.42
2023-07-03T18:23:23.822Z,28.19
2023-07-03T18:25:52.386Z,28.26
2023-07-03T18:28:21.051Z,28.34
2023-07-03T18:30:58.725Z,28.16
2023-07-03T18:33:27.130Z,28.10
2023-07-03T18:35:55.345Z,28.12
2023-07-03T18:38:25.660Z,28.16
2023-07-03T18:40:54.620Z,28.12
2023-07-03T18:43:22.667Z,28.03
2023-07-03T18:45:51.046Z,27.90
2023-07-03T18:48:19.680Z,27.89
2023-07-03T18:50:47.734Z,27.88
2023-07-03T18:53:15.865Z,27.81
2023-07-03T18:55:51.312Z,27.73
2023-07-03T18:58:19.781Z,27.71
2023-07-03T19:00:48.161Z,27.54
2023-07-03T19:03:16.593Z,27.53
2023-07-03T19:05:51.776Z,27.47
2023-07-03T19:08:20.392Z,27.43
2023-07-03T19:10:49.814Z,27.37
2023-07-03T19:13:18.357Z,27.29
2023-07-03T19:15:46.717Z,27.17
2023-07-03T19:18:15.177Z,27.15
2023-07-03T19:20:43.473Z,27.11
2023-07-03T19:23:11.502Z,27.09
2023-07-03T19:25:39.792Z,27.01
2023-07-03T19:28:09.631Z,26.96
2023-07-03T19:30:37.627Z,26.89
2023-07-03T19:33:05.783Z,26.86
2023-07-03T19:35:35.613Z,26.79
2023-07-03T19:38:03.703Z,26.74
2023-07-03T19:40:35.078Z,26.68
2023-07-03T19:43:03.183Z,26.54
2023-07-03T19:45:33.913Z,26.40
2023-07-03T19:48:02.290Z,26.45
2023-07-03T19:50:30.575Z,26.42
2023-07-03T19:52:58.658Z,26.37
2023-07-03T19:55:28.086Z,26.35
2023-07-03T19:57:56.607Z,26.31
2023-07-03T20:00:26.941Z,26.26
2023-07-03T20:02:57.023Z,26.16
2023-07-03T20:05:25.414Z,26.14
2023-07-03T20:07:53.934Z,26.15
2023-07-03T20:10:22.003Z,26.14
2023-07-03T20:12:51.783Z,26.08
2023-07-03T20:15:21.701Z,26.06
2023-07-03T20:17:51.490Z,26.02
2023-07-03T20:20:20.930Z,25.97
2023-07-03T20:22:49.827Z,25.97
2023-07-03T20:25:17.997Z,25.90
2023-07-03T20:27:46.635Z,25.81
2023-07-03T20:30:14.788Z,25.81
2023-07-03T20:32:45.116Z,25.72
2023-07-03T20:35:13.380Z,25.69
2023-07-03T20:37:42.955Z,25.64
2023-07-03T20:40:11.849Z,25.63
2023-07-03T20:42:39.868Z,25.53
2023-07-03T20:45:09.079Z,25.50
2023-07-03T20:47:37.222Z,25.30
2023-07-03T20:50:05.608Z,25.26
2023-07-03T20:52:36.667Z,25.24
2023-07-03T20:55:23.539Z,25.25
2023-07-03T20:57:52.174Z,25.20
2023-07-03T21:00:21.860Z,25.16
2023-07-03T21:02:51.820Z,25.12
2023-07-03T21:05:21.013Z,25.07
2023-07-03T21:07:49.195Z,25.07
2023-07-03T21:10:18.987Z,24.98
2023-07-03T21:12:47.799Z,24.97
2023-07-03T21:15:16.067Z,24.96
2023-07-03T21:17:44.172Z,24.94
2023-07-03T21:20:13.138Z,24.93
2023-07-03T21:22:41.226Z,24.86
2023-07-03T21:25:09.810Z,24.77
2023-07-03T21:27:39.597Z,24.75
2023-07-03T21:30:08.957Z,24.75
2023-07-03T21:32:37.015Z,24.71
2023-07-03T21:35:05.458Z,24.69
2023-07-03T21:37:33.432Z,24.64
2023-07-03T21:40:01.376Z,24.52
2023-07-03T21:42:29.524Z,24.43
2023-07-03T21:44:59.059Z,24.44
2023-07-03T21:47:27.802Z,24.41
2023-07-03T21:49:55.899Z,24.31
2023-07-03T21:52:23.921Z,24.35
2023-07-03T21:54:51.870Z,24.31
2023-07-03T21:57:20.545Z,24.33
2023-07-03T21:59:50.242Z,24.33
2023-07-03T22:02:19.769Z,24.31
2023-07-03T22:04:47.811Z,24.28
2023-07-03T22:07:16.230Z,24.27
2023-07-03T22:09:44.351Z,24.29
2023-07-03T22:12:12.622Z,24.15
2023-07-03T22:14:40.656Z,24.08
2023-07-03T22:17:08.701Z,24.14
2023-07-03T22:19:40.089Z,24.14
2023-07-03T22:22:08.789Z,24.09
2023-07-03T22:24:36.803Z,24.06
2023-07-03T22:27:05.659Z,24.11
2023-07-03T22:29:34.413Z,24.07
2023-07-03T22:32:02.541Z,24.07
2023-07-03T22:34:30.599Z,24.14
2023-07-03T22:37:00.392Z,24.12
2023-07-03T22:39:28.356Z,24.14
2023-07-03T22:41:56.393Z,24.12
2023-07-03T22:44:24.359Z,24.12
2023-07-03T22:46:53.324Z,24.12
2023-07-03T22:49:25.376Z,24.11
2023-07-03T22:51:54.270Z,24.08
2023-07-03T22:54:24.203Z,24.04
2023-07-03T22:56:52.203Z,24.02
2023-07-03T22:59:20.171Z,23.98
2023-07-03T23:01:49.427Z,23.90
2023-07-03T23:04:18.311Z,23.93
2023-07-03T23:06:47.016Z,23.88
2023-07-03T23:09:15.208Z,23.81
2023-07-03T23:11:44.652Z,23.84
2023-07-03T23:14:16.749Z,23.80
2023-07-03T23:16:44.994Z,23.75
2023-07-03T23:19:13.794Z,23.68
2023-07-03T23:21:41.777Z,23.63
2023-07-03T23:24:10.484Z,23.58
2023-07-03T23:26:38.710Z,23.51
2023-07-03T23:29:09.160Z,23.49
2023-07-03T23:31:37.501Z,23.42
2023-07-03T23:34:06.887Z,23.39
2023-07-03T23:36:35.800Z,23.34
2023-07-03T23:39:04.176Z,23.27
2023-07-03T23:41:33.730Z,23.25
2023-07-03T23:44:01.808Z,23.14
2023-07-03T23:46:33.155Z,22.86
2023-07-03T23:49:02.082Z,22.83
2023-07-03T23:51:31.301Z,22.70
2023-07-03T23:54:00.365Z,22.68
2023-07-03T23:56:28.816Z,22.80
2023-07-03T23:58:57.243Z,22.82
